createdAt,value
2023-02-06T00:04:56.927Z,7.13
2023-02-06T00:09:58.598Z,10.52
2023-02-06T00:15:00.261Z,6.47
2023-02-06T00:20:02.354Z,11.38
2023-02-06T00:25:04.652Z,8.60
2023-02-06T00:30:06.815Z,6.13
2023-02-06T00:35:08.803Z,7.95
2023-02-06T00:40:10.981Z,7.10
2023-02-06T00:45:12.700Z,6.68
2023-02-06T00:50:14.441Z,7.35
2023-02-06T00:55:16.236Z,6.68
2023-02-06T01:00:18.279Z,7.47
2023-02-06T01:05:20.088Z,9.82
2023-02-06T01:10:21.856Z,6.22
2023-02-06T01:15:23.518Z,6.13
2023-02-06T01:20:25.285Z,6.85
2023-02-06T01:25:27.029Z,6.68
2023-02-06T01:30:28.726Z,7.93
2023-02-06T01:35:30.424Z,5.20
2023-02-06T01:40:32.100Z,5.00
2023-02-06T01:45:53.108Z,4.55
2023-02-06T01:50:57.438Z,4.05
2023-02-06T01:56:02.000Z,5.97
2023-02-06T02:01:05.370Z,4.75
2023-02-06T02:06:11.362Z,5.40
2023-02-06T02:11:20.342Z,4.78
2023-02-06T02:17:00.734Z,7.80
2023-02-06T02:22:34.331Z,6.38
2023-02-06T02:27:55.533Z,6.70
2023-02-06T02:33:06.143Z,8.13
2023-02-06T02:38:13.785Z,6.10
2023-02-06T02:43:22.738Z,4.70
2023-02-06T02:48:30.146Z,6.35
2023-02-06T02:53:32.303Z,8.13
2023-02-06T02:58:35.782Z,4.32
2023-02-06T03:03:42.749Z,6.13
2023-02-06T03:09:03.126Z,6.72
2023-02-06T03:14:39.387Z,5.80
2023-02-06T03:19:48.559Z,6.05
2023-02-06T03:24:52.609Z,7.63
2023-02-06T03:29:56.158Z,6.38
2023-02-06T03:35:19.983Z,6.85
2023-02-06T03:40:21.944Z,6.32
2023-02-06T03:45:29.131Z,7.10
2023-02-06T03:50:34.883Z,7.35
2023-02-06T03:55:38.661Z,3.47
2023-02-06T04:00:42.958Z,4.75
2023-02-06T04:05:44.637Z,8.48
2023-02-06T04:10:46.266Z,4.70
2023-02-06T04:15:47.917Z,3.88
2023-02-06T04:20:52.243Z,6.40
2023-02-06T04:25:53.992Z,4.88
2023-02-06T04:30:55.831Z,7.80
2023-02-06T04:35:57.545Z,10.05
2023-02-06T04:41:06.090Z,3.75
2023-02-06T04:46:07.793Z,6.30
2023-02-06T04:51:09.818Z,6.63
2023-02-06T04:56:12.870Z,5.53
2023-02-06T05:01:16.900Z,7.28
2023-02-06T05:06:18.669Z,6.85
2023-02-06T05:11:20.296Z,9.57
2023-02-06T05:16:22.050Z,8.05
2023-02-06T05:21:25.222Z,6.88
2023-02-06T05:26:26.903Z,8.18
2023-02-06T05:31:29.133Z,6.22
2023-02-06T05:36:30.837Z,10.73
2023-02-06T05:41:32.726Z,9.18
2023-02-06T05:46:34.492Z,8.27
2023-02-06T05:51:36.211Z,4.65
2023-02-06T05:56:37.916Z,7.90
2023-02-06T06:01:39.564Z,7.88
2023-02-06T06:06:41.879Z,8.98
2023-02-06T06:11:43.791Z,7.22
2023-02-06T06:16:45.474Z,5.88
2023-02-06T06:21:47.137Z,7.78
2023-02-06T06:26:48.810Z,9.15
2023-02-06T06:31:50.561Z,12.00
2023-02-06T06:36:52.294Z,6.25
2023-02-06T06:41:54.173Z,11.35
2023-02-06T06:46:55.851Z,20.92
2023-02-06T06:51:57.526Z,15.90
2023-02-06T06:56:59.172Z,17.33
2023-02-06T07:02:00.785Z,14.55
2023-02-06T07:07:02.502Z,15.48
2023-02-06T07:12:05.104Z,12.35
2023-02-06T07:17:06.830Z,9.80
2023-02-06T07:22:08.513Z,10.50
2023-02-06T07:27:10.605Z,9.77
2023-02-06T07:32:12.340Z,13.05
2023-02-06T07:37:14.168Z,11.98
2023-02-06T07:42:15.842Z,12.00
2023-02-06T07:47:17.703Z,12.25
2023-02-06T07:52:22.058Z,12.85
2023-02-06T07:57:23.696Z,12.23
2023-02-06T08:02:25.449Z,13.38
2023-02-06T08:07:27.304Z,13.27
2023-02-06T08:12:32.019Z,9.60
2023-02-06T08:17:33.752Z,12.13
2023-02-06T08:22:35.412Z,8.60
2023-02-06T08:27:37.198Z,12.65
2023-02-06T08:32:39.418Z,9.40
2023-02-06T08:37:41.092Z,9.88
2023-02-06T08:42:42.788Z,9.98
2023-02-06T08:47:44.392Z,11.60
2023-02-06T08:52:46.102Z,11.95
2023-02-06T08:57:47.735Z,13.57
2023-02-06T09:02:49.524Z,14.82
2023-02-06T09:07:51.245Z,9.23
2023-02-06T09:12:54.397Z,9.90
2023-02-06T09:17:56.104Z,9.43
2023-02-06T09:22:57.864Z,10.57
2023-02-06T09:27:59.582Z,8.65
2023-02-06T09:33:01.338Z,11.02
2023-02-06T09:38:03.155Z,12.43
2023-02-06T09:43:05.066Z,10.30
2023-02-06T09:48:19.673Z,13.25
2023-02-06T09:53:30.567Z,14.23
2023-02-06T09:58:53.898Z,13.63
2023-02-06T10:04:01.945Z,10.27
2023-02-06T10:09:11.644Z,13.45
2023-02-06T10:14:22.374Z,12.02
2023-02-06T10:19:48.262Z,14.02
2023-02-06T10:25:15.287Z,11.30
2023-02-06T10:30:20.753Z,12.00
2023-02-06T10:35:51.811Z,8.15
2023-02-06T10:41:18.682Z,10.98
2023-02-06T10:46:26.302Z,13.77
2023-02-06T10:51:38.614Z,10.30
2023-02-06T10:56:46.844Z,11.48
2023-02-06T11:01:52.177Z,10.50
2023-02-06T11:07:01.054Z,13.18
2023-02-06T11:12:03.828Z,11.25
2023-02-06T11:17:05.549Z,10.95
2023-02-06T11:22:07.401Z,12.50
2023-02-06T11:27:20.682Z,13.23
2023-02-06T11:32:40.836Z,11.00
2023-02-06T11:37:42.765Z,18.48
2023-02-06T11:42:46.112Z,11.07
2023-02-06T11:47:47.784Z,11.75
2023-02-06T11:52:49.937Z,11.18
2023-02-06T11:58:23.196Z,11.70
2023-02-06T12:03:31.213Z,12.75
2023-02-06T12:08:55.058Z,12.13
2023-02-06T12:14:03.622Z,12.65
2023-02-06T12:19:12.068Z,13.80
2023-02-06T12:24:36.159Z,12.73
2023-02-06T12:29:43.659Z,13.65
2023-02-06T12:35:00.636Z,12.68
2023-02-06T12:40:02.486Z,12.93
2023-02-06T12:45:25.268Z,14.52
2023-02-06T12:50:55.391Z,11.90
2023-02-06T12:56:29.501Z,12.02
2023-02-06T13:01:58.287Z,10.65
2023-02-06T13:07:05.279Z,10.13
2023-02-06T13:12:13.843Z,10.50
2023-02-06T13:17:20.695Z,12.68
2023-02-06T13:22:36.868Z,11.10
2023-02-06T13:27:40.084Z,13.10
2023-02-06T13:32:45.419Z,10.50
2023-02-06T13:37:48.562Z,12.48
2023-02-06T13:43:11.285Z,11.65
2023-02-06T13:48:27.873Z,10.20
2023-02-06T13:53:48.161Z,11.27
2023-02-06T13:58:56.056Z,10.15
2023-02-06T14:03:58.470Z,12.23
2023-02-06T14:09:30.746Z,12.95
2023-02-06T14:14:47.718Z,14.07
2023-02-06T14:20:03.487Z,12.98
2023-02-06T14:25:05.471Z,12.00
2023-02-06T14:30:22.306Z,12.52
2023-02-06T14:35:42.784Z,10.15
2023-02-06T14:40:49.336Z,11.18
2023-02-06T14:51:25.378Z,12.88
2023-02-06T14:56:33.291Z,12.05
2023-02-06T15:01:35.113Z,12.95
2023-02-06T15:06:40.115Z,12.57
2023-02-06T15:11:41.860Z,12.55
2023-02-06T15:16:48.311Z,11.55
2023-02-06T15:27:11.244Z,10.77
2023-02-06T15:32:35.490Z,13.07
2023-02-06T15:37:37.190Z,11.02
2023-02-06T15:42:39.074Z,12.60
2023-02-06T15:47:42.466Z,11.90
2023-02-06T15:52:47.378Z,12.25
2023-02-06T15:57:49.994Z,11.55
2023-02-06T16:02:54.946Z,11.02
2023-02-06T16:07:57.062Z,10.65
2023-02-06T16:13:01.828Z,12.98
2023-02-06T16:18:24.813Z,13.18
2023-02-06T16:23:29.454Z,13.88
2023-02-06T16:28:31.479Z,11.82
2023-02-06T16:33:36.057Z,13.10
2023-02-06T16:38:37.675Z,17.23
2023-02-06T16:43:39.353Z,12.18
2023-02-06T16:48:41.242Z,14.98
2023-02-06T16:53:44.232Z,16.63
2023-02-06T16:58:46.868Z,15.00
2023-02-06T17:03:51.264Z,17.80
2023-02-06T17:08:55.839Z,14.60
2023-02-06T17:13:57.572Z,15.15
2023-02-06T17:18:59.687Z,14.10
2023-02-06T17:24:01.977Z,13.07
2023-02-06T17:29:04.021Z,14.95
2023-02-06T17:34:05.878Z,15.38
2023-02-06T17:39:07.848Z,18.27
2023-02-06T17:44:11.787Z,13.70
2023-02-06T17:49:14.807Z,12.90
2023-02-06T17:54:16.743Z,15.30
2023-02-06T17:59:18.421Z,21.42
2023-02-06T18:04:21.459Z,17.40
2023-02-06T18:09:23.221Z,16.45
2023-02-06T18:14:25.238Z,23.27
2023-02-06T18:19:29.113Z,18.80
2023-02-06T18:24:31.387Z,16.77
2023-02-06T18:29:48.452Z,14.82
2023-02-06T18:34:52.269Z,14.02
2023-02-06T18:39:58.139Z,15.15
2023-02-06T18:45:02.118Z,13.98
2023-02-06T18:50:06.750Z,14.00
2023-02-06T18:55:09.470Z,11.50
2023-02-06T19:00:14.712Z,13.85
2023-02-06T19:05:17.562Z,14.95
2023-02-06T19:10:21.117Z,16.83
2023-02-06T19:15:23.680Z,16.23
2023-02-06T19:20:26.112Z,14.70
2023-02-06T19:25:28.580Z,12.73
2023-02-06T19:30:31.030Z,20.92
2023-02-06T19:35:33.681Z,24.48
2023-02-06T19:40:37.217Z,23.80
2023-02-06T19:45:40.228Z,18.65
2023-02-06T19:50:43.966Z,14.90
2023-02-06T19:55:49.720Z,23.80
2023-02-06T20:00:55.099Z,20.45
2023-02-06T20:06:01.772Z,15.38
2023-02-06T20:11:08.710Z,15.15
2023-02-06T20:16:20.205Z,15.57
2023-02-06T20:21:31.563Z,17.85
2023-02-06T20:26:38.146Z,15.25
2023-02-06T20:31:42.223Z,16.02
2023-02-06T20:36:45.361Z,18.92
2023-02-06T20:41:49.609Z,13.35
2023-02-06T20:46:51.699Z,15.40
2023-02-06T20:51:54.568Z,15.57
2023-02-06T20:56:56.807Z,12.93
2023-02-06T21:01:59.225Z,13.85
2023-02-06T21:07:01.205Z,13.02
2023-02-06T21:12:03.261Z,17.05
2023-02-06T21:17:05.044Z,18.17
2023-02-06T21:22:06.796Z,19.10
2023-02-06T21:27:08.652Z,18.25
2023-02-06T21:32:13.885Z,14.38
2023-02-06T21:37:16.116Z,18.92
2023-02-06T21:42:20.578Z,13.98
2023-02-06T21:47:22.221Z,17.00
2023-02-06T21:52:23.907Z,18.35
2023-02-06T21:57:26.615Z,15.55
2023-02-06T22:02:28.354Z,14.57
2023-02-06T22:07:30.088Z,18.30
2023-02-06T22:12:32.099Z,19.77
2023-02-06T22:17:34.794Z,17.10
2023-02-06T22:22:37.481Z,15.98
2023-02-06T22:27:39.600Z,15.05
2023-02-06T22:32:41.279Z,13.63
2023-02-06T22:37:44.574Z,15.90
2023-02-06T22:42:46.318Z,15.38
2023-02-06T22:47:48.039Z,13.63
2023-02-06T22:53:08.168Z,20.70
2023-02-06T22:58:09.809Z,16.42
2023-02-06T23:03:11.460Z,16.95
2023-02-06T23:08:13.119Z,17.63
2023-02-06T23:13:14.832Z,19.55
2023-02-06T23:18:17.137Z,23.83
2023-02-06T23:23:18.738Z,15.30
2023-02-06T23:28:21.919Z,15.80
2023-02-06T23:33:23.933Z,20.10
2023-02-06T23:38:25.588Z,20.85
2023-02-06T23:43:27.234Z,17.08
2023-02-06T23:48:28.949Z,18.83
2023-02-06T23:53:30.921Z,18.38
2023-02-06T23:58:32.556Z,15.38
